首页
METAR-TAF:

METAR-TAF

机场 :

埃因霍温, 荷兰

纬度: 51-27N, 经度: 005-25E, 海拔: 23米

当前天气观测

该预报发布于31分钟前的16:25 UTC
风速9节,风向北转东北,在东转东北之间变化
温度 25°C
湿度 26%
气压 1020 hPa
能见度10公里或以上
阴天层高于31000英尺

METAR: EHEH 011625Z AUTO 02009KT 350V070 9999 OVC310 25/04 Q1020 BLU

时间: 18:56 (16:56 UTC)

预报

该预报发布于5小时和25分钟前的11:31 UTC
预报有效从01日的 12点(UTC)到 02日的 18点(UTC)
风速10节,风向东转东北
能见度10公里或以上
1500米以下无云,无积雨云
成为
从 01日的 17点(UTC)到 01日的 20点(UTC)
风速5节,风向北转东北
成为
从 01日的 23点(UTC)到 02日的 02点(UTC)
风速3节,风向东转东南
成为
从 02日的 10点(UTC)到 02日的 13点(UTC)
风速2节,风向多变
成为
从 02日的 13点(UTC)到 02日的 16点(UTC)
风速10节,风向西北,有时为20节阵风

TAF: EHEH 011131Z 0112/0218 06010KT CAVOK BECMG 0117/0120 03005KT BECMG 0123/0202 11003KT BECMG 0210/0213 VRB02KT BECMG 0213/0216 32010G20KT

超过4000个机场的气象观测和天气预报(METAR&TAF报告)。

可查询的气象台以黄色和红色小点在地图上表示。

将鼠标移到小点上方,可查看气象台名称。

然后点击查看天气观测和预报。

如需切换地图:点击带黑十字的绿色按钮放大地图;点击带横线的绿色按钮缩小地图;或者点击绿色箭头查看邻近地区的地图。


METAR-TAF: